sensor_id;sensor_type;location;lat;lon;timestamp;temperature;humidity
32095;DHT22;18608;53.688;10.748;2023-02-26T00:00:46;3.70;99.90
32095;DHT22;18608;53.688;10.748;2023-02-26T00:03:12;0.90;99.90
32095;DHT22;18608;53.688;10.748;2023-02-26T00:05:37;0.90;99.90
32095;DHT22;18608;53.688;10.748;2023-02-26T00:08:03;0.90;99.90
32095;DHT22;18608;53.688;10.748;2023-02-26T00:10:30;1.00;99.90
32095;DHT22;18608;53.688;10.748;2023-02-26T00:12:56;1.00;99.90
32095;DHT22;18608;53.688;10.748;2023-02-26T00:15:22;1.00;99.90
32095;DHT22;18608;53.688;10.748;2023-02-26T00:18:14;1.00;99.90
32095;DHT22;18608;53.688;10.748;2023-02-26T00:20:41;1.00;99.90
32095;DHT22;18608;53.688;10.748;2023-02-26T00:23:11;1.00;99.90
32095;DHT22;18608;53.688;10.748;2023-02-26T00:25:39;0.90;99.90
32095;DHT22;18608;53.688;10.748;2023-02-26T00:28:05;0.90;99.90
32095;DHT22;18608;53.688;10.748;2023-02-26T00:30:32;1.00;99.90
32095;DHT22;18608;53.688;10.748;2023-02-26T00:32:58;1.00;99.90
32095;DHT22;18608;53.688;10.748;2023-02-26T00:35:24;0.90;99.90
32095;DHT22;18608;53.688;10.748;2023-02-26T00:40:44;0.90;99.90
32095;DHT22;18608;53.688;10.748;2023-02-26T00:43:28;0.90;99.90
32095;DHT22;18608;53.688;10.748;2023-02-26T00:46:02;0.80;99.90
32095;DHT22;18608;53.688;10.748;2023-02-26T00:56:41;0.80;99.90
32095;DHT22;18608;53.688;10.748;2023-02-26T00:59:07;0.80;99.90
32095;DHT22;18608;53.688;10.748;2023-02-26T01:01:32;0.80;99.90
32095;DHT22;18608;53.688;10.748;2023-02-26T01:03:58;0.80;99.90
32095;DHT22;18608;53.688;10.748;2023-02-26T01:06:27;0.80;99.90
32095;DHT22;18608;53.688;10.748;2023-02-26T01:09:15;0.80;99.90
32095;DHT22;18608;53.688;10.748;2023-02-26T01:11:42;0.80;99.90
32095;DHT22;18608;53.688;10.748;2023-02-26T01:14:08;0.90;99.90
32095;DHT22;18608;53.688;10.748;2023-02-26T01:16:40;0.90;99.90
32095;DHT22;18608;53.688;10.748;2023-02-26T01:19:17;0.90;99.90
32095;DHT22;18608;53.688;10.748;2023-02-26T01:21:50;0.80;99.90
32095;DHT22;18608;53.688;10.748;2023-02-26T01:24:19;0.80;99.90
32095;DHT22;18608;53.688;10.748;2023-02-26T01:26:47;0.80;99.90
32095;DHT22;18608;53.688;10.748;2023-02-26T01:29:14;0.80;99.90
32095;DHT22;18608;53.688;10.748;2023-02-26T01:37:20;0.80;99.90
32095;DHT22;18608;53.688;10.748;2023-02-26T01:42:39;0.50;99.90
32095;DHT22;18608;53.688;10.748;2023-02-26T01:45:20;0.50;99.90
32095;DHT22;18608;53.688;10.748;2023-02-26T01:48:23;0.50;99.90
32095;DHT22;18608;53.688;10.748;2023-02-26T01:50:52;0.50;99.90
32095;DHT22;18608;53.688;10.748;2023-02-26T01:55:45;0.40;99.90
32095;DHT22;18608;53.688;10.748;2023-02-26T01:58:11;0.40;99.90
32095;DHT22;18608;53.688;10.748;2023-02-26T02:00:37;0.40;99.90
32095;DHT22;18608;53.688;10.748;2023-02-26T02:03:03;0.40;99.90
32095;DHT22;18608;53.688;10.748;2023-02-26T02:05:41;0.30;99.90
32095;DHT22;18608;53.688;10.748;2023-02-26T02:08:09;0.20;99.90
32095;DHT22;18608;53.688;10.748;2023-02-26T02:10:36;0.20;99.90
32095;DHT22;18608;53.688;10.748;2023-02-26T02:35:19;0.00;99.90
32095;DHT22;18608;53.688;10.748;2023-02-26T02:37:59;0.00;99.90
32095;DHT22;18608;53.688;10.748;2023-02-26T02:40:33;0.00;99.90
32095;DHT22;18608;53.688;10.748;2023-02-26T02:43:01;0.00;99.90
32095;DHT22;18608;53.688;10.748;2023-02-26T02:45:47;0.00;99.90
32095;DHT22;18608;53.688;10.748;2023-02-26T02:49:17;0.00;99.90
32095;DHT22;18608;53.688;10.748;2023-02-26T02:51:13;-0.10;99.90
32095;DHT22;18608;53.688;10.748;2023-02-26T02:54:06;-0.10;99.90
32095;DHT22;18608;53.688;10.748;2023-02-26T02:56:53;-0.20;99.90
32095;DHT22;18608;53.688;10.748;2023-02-26T02:59:26;-0.20;99.90
32095;DHT22;18608;53.688;10.748;2023-02-26T03:02:16;-0.20;99.90
32095;DHT22;18608;53.688;10.748;2023-02-26T03:04:44;-0.40;99.90
32095;DHT22;18608;53.688;10.748;2023-02-26T03:07:10;-0.40;99.90
32095;DHT22;18608;53.688;10.748;2023-02-26T03:09:36;-0.40;99.90
32095;DHT22;18608;53.688;10.748;2023-02-26T03:12:02;-0.50;99.90
32095;DHT22;18608;53.688;10.748;2023-02-26T03:14:28;-0.50;99.90
32095;DHT22;18608;53.688;10.748;2023-02-26T03:25:29;-0.50;99.90
32095;DHT22;18608;53.688;10.748;2023-02-26T03:28:35;-0.60;99.90
32095;DHT22;18608;53.688;10.748;2023-02-26T03:33:57;-0.70;99.90
32095;DHT22;18608;53.688;10.748;2023-02-26T03:39:23;-0.70;99.90
32095;DHT22;18608;53.688;10.748;2023-02-26T03:42:06;-0.80;99.90
32095;DHT22;18608;53.688;10.748;2023-02-26T03:44:43;-0.80;99.90
32095;DHT22;18608;53.688;10.748;2023-02-26T03:47:13;-0.80;99.90
32095;DHT22;18608;53.688;10.748;2023-02-26T03:49:52;-0.90;99.90
32095;DHT22;18608;53.688;10.748;2023-02-26T03:52:22;-0.90;99.90
32095;DHT22;18608;53.688;10.748;2023-02-26T03:54:59;-0.90;99.90
32095;DHT22;18608;53.688;10.748;2023-02-26T03:57:27;-0.90;99.90
32095;DHT22;18608;53.688;10.748;2023-02-26T03:59:53;-0.80;99.90
32095;DHT22;18608;53.688;10.748;2023-02-26T04:02:25;-0.80;99.90
32095;DHT22;18608;53.688;10.748;2023-02-26T04:05:11;-0.80;99.90
32095;DHT22;18608;53.688;10.748;2023-02-26T04:07:39;-0.80;99.90
32095;DHT22;18608;53.688;10.748;2023-02-26T04:10:05;-0.80;99.90
32095;DHT22;18608;53.688;10.748;2023-02-26T04:12:32;-0.80;99.90
32095;DHT22;18608;53.688;10.748;2023-02-26T04:14:57;-0.80;99.90
32095;DHT22;18608;53.688;10.748;2023-02-26T04:17:23;-0.90;99.90
32095;DHT22;18608;53.688;10.748;2023-02-26T04:19:49;-0.90;99.90
32095;DHT22;18608;53.688;10.748;2023-02-26T04:22:15;-0.80;99.90
32095;DHT22;18608;53.688;10.748;2023-02-26T04:24:40;-0.90;99.90
32095;DHT22;18608;53.688;10.748;2023-02-26T04:27:06;-0.90;99.90
32095;DHT22;18608;53.688;10.748;2023-02-26T04:29:32;-0.90;99.90
32095;DHT22;18608;53.688;10.748;2023-02-26T04:31:57;-1.00;99.90
32095;DHT22;18608;53.688;10.748;2023-02-26T04:34:23;-1.00;99.90
32095;DHT22;18608;53.688;10.748;2023-02-26T04:36:49;-1.00;99.90
32095;DHT22;18608;53.688;10.748;2023-02-26T04:39:14;-1.00;99.90
32095;DHT22;18608;53.688;10.748;2023-02-26T04:41:40;-1.00;99.90
32095;DHT22;18608;53.688;10.748;2023-02-26T04:44:06;-1.00;99.90
32095;DHT22;18608;53.688;10.748;2023-02-26T04:46:32;-1.10;99.90
32095;DHT22;18608;53.688;10.748;2023-02-26T04:48:57;-1.20;99.90
32095;DHT22;18608;53.688;10.748;2023-02-26T04:51:23;-1.30;99.90
32095;DHT22;18608;53.688;10.748;2023-02-26T04:53:49;-1.40;99.90
32095;DHT22;18608;53.688;10.748;2023-02-26T04:56:14;-1.40;99.90
32095;DHT22;18608;53.688;10.748;2023-02-26T04:58:40;-1.40;99.90
32095;DHT22;18608;53.688;10.748;2023-02-26T05:01:06;-1.40;99.90
32095;DHT22;18608;53.688;10.748;2023-02-26T05:03:32;-1.40;99.90
32095;DHT22;18608;53.688;10.748;2023-02-26T05:05:58;-1.40;99.90
32095;DHT22;18608;53.688;10.748;2023-02-26T05:08:23;-1.40;99.90
32095;DHT22;18608;53.688;10.748;2023-02-26T05:10:50;-1.40;99.90
32095;DHT22;18608;53.688;10.748;2023-02-26T05:13:17;-1.30;99.90
32095;DHT22;18608;53.688;10.748;2023-02-26T05:15:42;-1.30;99.90
32095;DHT22;18608;53.688;10.748;2023-02-26T05:18:08;-1.40;99.90
32095;DHT22;18608;53.688;10.748;2023-02-26T05:20:34;-1.40;99.90
32095;DHT22;18608;53.688;10.748;2023-02-26T05:22:59;-1.50;99.90
32095;DHT22;18608;53.688;10.748;2023-02-26T05:25:25;-1.60;99.90
32095;DHT22;18608;53.688;10.748;2023-02-26T05:27:50;-1.60;99.90
32095;DHT22;18608;53.688;10.748;2023-02-26T05:30:16;0.50;99.90
32095;DHT22;18608;53.688;10.748;2023-02-26T05:32:42;-1.70;99.90
32095;DHT22;18608;53.688;10.748;2023-02-26T05:35:09;-1.70;99.90
32095;DHT22;18608;53.688;10.748;2023-02-26T05:37:35;-1.70;99.90
32095;DHT22;18608;53.688;10.748;2023-02-26T05:40:01;-1.70;99.90
32095;DHT22;18608;53.688;10.748;2023-02-26T05:42:26;-1.70;99.90
32095;DHT22;18608;53.688;10.748;2023-02-26T05:44:52;-1.80;99.90
32095;DHT22;18608;53.688;10.748;2023-02-26T05:47:18;-1.80;99.90
32095;DHT22;18608;53.688;10.748;2023-02-26T05:49:44;-1.80;99.90
32095;DHT22;18608;53.688;10.748;2023-02-26T05:52:09;-1.70;99.90
32095;DHT22;18608;53.688;10.748;2023-02-26T05:54:35;-1.70;99.90
32095;DHT22;18608;53.688;10.748;2023-02-26T05:57:01;-1.70;99.90
32095;DHT22;18608;53.688;10.748;2023-02-26T05:59:26;-1.80;99.90
32095;DHT22;18608;53.688;10.748;2023-02-26T06:01:52;-1.80;99.90
32095;DHT22;18608;53.688;10.748;2023-02-26T06:04:17;-1.80;99.90
32095;DHT22;18608;53.688;10.748;2023-02-26T06:06:43;-1.80;99.90
32095;DHT22;18608;53.688;10.748;2023-02-26T06:09:09;-1.90;99.90
32095;DHT22;18608;53.688;10.748;2023-02-26T06:11:34;-1.80;99.90
32095;DHT22;18608;53.688;10.748;2023-02-26T06:14:00;-1.80;99.90
32095;DHT22;18608;53.688;10.748;2023-02-26T06:16:26;-1.80;99.90
32095;DHT22;18608;53.688;10.748;2023-02-26T06:18:52;-1.70;99.90
32095;DHT22;18608;53.688;10.748;2023-02-26T06:21:17;-1.80;99.90
32095;DHT22;18608;53.688;10.748;2023-02-26T06:23:43;-1.80;99.90
32095;DHT22;18608;53.688;10.748;2023-02-26T06:26:09;-1.80;99.90
32095;DHT22;18608;53.688;10.748;2023-02-26T06:28:34;-1.70;99.90
32095;DHT22;18608;53.688;10.748;2023-02-26T06:31:01;-1.80;99.90
32095;DHT22;18608;53.688;10.748;2023-02-26T06:33:26;-1.70;99.90
32095;DHT22;18608;53.688;10.748;2023-02-26T06:35:52;-1.60;99.90
32095;DHT22;18608;53.688;10.748;2023-02-26T06:38:18;-1.60;99.90
32095;DHT22;18608;53.688;10.748;2023-02-26T06:40:45;-1.50;99.90
32095;DHT22;18608;53.688;10.748;2023-02-26T06:43:11;-1.50;99.90
32095;DHT22;18608;53.688;10.748;2023-02-26T06:45:37;-1.30;99.90
32095;DHT22;18608;53.688;10.748;2023-02-26T06:48:03;-1.30;99.90
32095;DHT22;18608;53.688;10.748;2023-02-26T06:50:29;-1.20;99.90
32095;DHT22;18608;53.688;10.748;2023-02-26T06:55:21;-1.30;99.90
32095;DHT22;18608;53.688;10.748;2023-02-26T06:57:52;-1.20;99.90
32095;DHT22;18608;53.688;10.748;2023-02-26T07:00:18;-1.10;99.90
32095;DHT22;18608;53.688;10.748;2023-02-26T07:02:43;-0.90;99.90
32095;DHT22;18608;53.688;10.748;2023-02-26T07:05:09;-0.90;99.90
32095;DHT22;18608;53.688;10.748;2023-02-26T07:07:35;-0.90;99.90
32095;DHT22;18608;53.688;10.748;2023-02-26T07:10:00;-0.80;99.90
32095;DHT22;18608;53.688;10.748;2023-02-26T07:12:26;-0.80;99.90
32095;DHT22;18608;53.688;10.748;2023-02-26T07:14:51;-0.50;99.90
32095;DHT22;18608;53.688;10.748;2023-02-26T07:17:17;-0.40;99.90
32095;DHT22;18608;53.688;10.748;2023-02-26T07:19:50;-0.40;99.90
32095;DHT22;18608;53.688;10.748;2023-02-26T07:22:18;-0.10;99.90
32095;DHT22;18608;53.688;10.748;2023-02-26T07:24:44;0.10;99.90
32095;DHT22;18608;53.688;10.748;2023-02-26T07:27:10;0.40;99.90
32095;DHT22;18608;53.688;10.748;2023-02-26T07:32:02;1.80;99.90
32095;DHT22;18608;53.688;10.748;2023-02-26T07:34:28;0.90;99.90
32095;DHT22;18608;53.688;10.748;2023-02-26T07:36:54;0.90;99.90
32095;DHT22;18608;53.688;10.748;2023-02-26T07:39:19;1.00;99.90
32095;DHT22;18608;53.688;10.748;2023-02-26T07:41:45;0.90;99.90
32095;DHT22;18608;53.688;10.748;2023-02-26T07:44:10;0.90;99.90
32095;DHT22;18608;53.688;10.748;2023-02-26T07:46:36;0.80;99.90
32095;DHT22;18608;53.688;10.748;2023-02-26T07:49:01;0.90;99.90
32095;DHT22;18608;53.688;10.748;2023-02-26T07:51:27;1.20;99.90
32095;DHT22;18608;53.688;10.748;2023-02-26T07:53:53;1.10;99.90
32095;DHT22;18608;53.688;10.748;2023-02-26T07:56:18;1.40;99.90
32095;DHT22;18608;53.688;10.748;2023-02-26T07:58:44;1.90;99.90
32095;DHT22;18608;53.688;10.748;2023-02-26T08:01:09;2.70;99.90
32095;DHT22;18608;53.688;10.748;2023-02-26T08:03:35;3.00;99.90
32095;DHT22;18608;53.688;10.748;2023-02-26T08:06:00;3.40;99.90
32095;DHT22;18608;53.688;10.748;2023-02-26T08:08:27;3.80;99.90
32095;DHT22;18608;53.688;10.748;2023-02-26T08:10:53;3.80;99.90
32095;DHT22;18608;53.688;10.748;2023-02-26T08:13:19;3.50;99.90
32095;DHT22;18608;53.688;10.748;2023-02-26T08:15:46;3.00;99.90
32095;DHT22;18608;53.688;10.748;2023-02-26T08:18:12;2.80;99.90
32095;DHT22;18608;53.688;10.748;2023-02-26T08:20:37;2.70;99.90
32095;DHT22;18608;53.688;10.748;2023-02-26T08:23:03;2.60;99.90
32095;DHT22;18608;53.688;10.748;2023-02-26T08:25:29;2.60;99.90
32095;DHT22;18608;53.688;10.748;2023-02-26T08:27:54;2.80;99.90
32095;DHT22;18608;53.688;10.748;2023-02-26T08:30:22;2.90;99.90
32095;DHT22;18608;53.688;10.748;2023-02-26T08:32:47;3.30;99.90
32095;DHT22;18608;53.688;10.748;2023-02-26T08:35:14;3.30;99.90
32095;DHT22;18608;53.688;10.748;2023-02-26T08:37:40;3.40;99.90
32095;DHT22;18608;53.688;10.748;2023-02-26T08:40:06;3.40;99.90
32095;DHT22;18608;53.688;10.748;2023-02-26T08:42:33;3.60;99.90
32095;DHT22;18608;53.688;10.748;2023-02-26T08:44:59;3.20;99.90
32095;DHT22;18608;53.688;10.748;2023-02-26T08:47:24;3.20;99.90
32095;DHT22;18608;53.688;10.748;2023-02-26T08:49:50;3.60;99.90
32095;DHT22;18608;53.688;10.748;2023-02-26T08:52:16;3.80;99.90
32095;DHT22;18608;53.688;10.748;2023-02-26T08:54:41;3.80;99.90
32095;DHT22;18608;53.688;10.748;2023-02-26T08:57:07;4.10;99.90
32095;DHT22;18608;53.688;10.748;2023-02-26T08:59:32;3.70;99.90
32095;DHT22;18608;53.688;10.748;2023-02-26T09:01:58;5.60;99.90
32095;DHT22;18608;53.688;10.748;2023-02-26T09:04:23;2.90;99.90
32095;DHT22;18608;53.688;10.748;2023-02-26T09:06:50;2.60;99.90
32095;DHT22;18608;53.688;10.748;2023-02-26T09:09:17;2.50;99.90
32095;DHT22;18608;53.688;10.748;2023-02-26T09:11:43;3.00;99.90
32095;DHT22;18608;53.688;10.748;2023-02-26T09:14:09;3.30;99.90
32095;DHT22;18608;53.688;10.748;2023-02-26T09:16:35;3.50;99.90
32095;DHT22;18608;53.688;10.748;2023-02-26T09:19:01;3.20;99.90
32095;DHT22;18608;53.688;10.748;2023-02-26T09:21:28;3.20;99.90
32095;DHT22;18608;53.688;10.748;2023-02-26T09:23:53;3.10;99.90
32095;DHT22;18608;53.688;10.748;2023-02-26T09:26:19;3.10;99.90
32095;DHT22;18608;53.688;10.748;2023-02-26T09:28:44;3.40;99.90
32095;DHT22;18608;53.688;10.748;2023-02-26T09:31:10;3.60;99.90
32095;DHT22;18608;53.688;10.748;2023-02-26T09:33:35;3.10;99.90
32095;DHT22;18608;53.688;10.748;2023-02-26T09:36:01;3.50;99.90
32095;DHT22;18608;53.688;10.748;2023-02-26T09:38:27;2.90;99.90
32095;DHT22;18608;53.688;10.748;2023-02-26T09:43:25;2.90;99.90
32095;DHT22;18608;53.688;10.748;2023-02-26T09:45:56;4.60;99.90
32095;DHT22;18608;53.688;10.748;2023-02-26T09:48:23;3.70;99.90
32095;DHT22;18608;53.688;10.748;2023-02-26T09:50:53;3.70;99.90
32095;DHT22;18608;53.688;10.748;2023-02-26T09:53:27;3.80;99.90
32095;DHT22;18608;53.688;10.748;2023-02-26T09:56:01;3.70;99.90
32095;DHT22;18608;53.688;10.748;2023-02-26T10:01:18;3.60;99.90
32095;DHT22;18608;53.688;10.748;2023-02-26T10:04:15;3.40;99.90
32095;DHT22;18608;53.688;10.748;2023-02-26T10:10:14;3.60;99.90
32095;DHT22;18608;53.688;10.748;2023-02-26T10:12:42;3.70;99.90
32095;DHT22;18608;53.688;10.748;2023-02-26T10:15:28;3.40;99.90
32095;DHT22;18608;53.688;10.748;2023-02-26T10:21:02;3.30;99.90
32095;DHT22;18608;53.688;10.748;2023-02-26T10:23:43;3.40;99.90
32095;DHT22;18608;53.688;10.748;2023-02-26T10:39:51;4.00;99.90
32095;DHT22;18608;53.688;10.748;2023-02-26T10:42:22;4.20;99.90
32095;DHT22;18608;53.688;10.748;2023-02-26T10:45:09;4.10;99.90
32095;DHT22;18608;53.688;10.748;2023-02-26T10:50:52;3.70;99.90
32095;DHT22;18608;53.688;10.748;2023-02-26T10:53:19;4.40;99.90
32095;DHT22;18608;53.688;10.748;2023-02-26T10:56:10;3.50;99.90
32095;DHT22;18608;53.688;10.748;2023-02-26T10:58:40;3.40;99.90
32095;DHT22;18608;53.688;10.748;2023-02-26T11:01:17;3.60;99.90
32095;DHT22;18608;53.688;10.748;2023-02-26T11:03:46;3.80;99.90
32095;DHT22;18608;53.688;10.748;2023-02-26T11:06:29;3.90;99.90
32095;DHT22;18608;53.688;10.748;2023-02-26T11:08:57;4.10;99.90
32095;DHT22;18608;53.688;10.748;2023-02-26T11:14:04;3.60;99.90
32095;DHT22;18608;53.688;10.748;2023-02-26T11:16:31;3.50;99.90
32095;DHT22;18608;53.688;10.748;2023-02-26T11:18:58;3.50;99.90
32095;DHT22;18608;53.688;10.748;2023-02-26T11:21:28;3.40;99.90
32095;DHT22;18608;53.688;10.748;2023-02-26T11:24:02;3.60;99.90
32095;DHT22;18608;53.688;10.748;2023-02-26T11:26:35;4.20;99.90
32095;DHT22;18608;53.688;10.748;2023-02-26T11:29:03;4.30;99.90
32095;DHT22;18608;53.688;10.748;2023-02-26T11:31:29;4.20;99.90
32095;DHT22;18608;53.688;10.748;2023-02-26T11:34:02;4.10;99.90
32095;DHT22;18608;53.688;10.748;2023-02-26T11:36:30;4.00;99.90
32095;DHT22;18608;53.688;10.748;2023-02-26T11:39:17;4.20;99.90
32095;DHT22;18608;53.688;10.748;2023-02-26T11:41:46;4.00;99.90
32095;DHT22;18608;53.688;10.748;2023-02-26T11:44:17;4.00;99.90
32095;DHT22;18608;53.688;10.748;2023-02-26T11:46:51;4.10;99.90
32095;DHT22;18608;53.688;10.748;2023-02-26T11:49:21;4.90;99.90
32095;DHT22;18608;53.688;10.748;2023-02-26T11:51:59;4.40;99.90
32095;DHT22;18608;53.688;10.748;2023-02-26T11:54:27;4.10;99.90
32095;DHT22;18608;53.688;10.748;2023-02-26T11:57:01;4.20;99.90
32095;DHT22;18608;53.688;10.748;2023-02-26T11:59:30;4.50;99.90
32095;DHT22;18608;53.688;10.748;2023-02-26T12:02:01;4.40;99.90
32095;DHT22;18608;53.688;10.748;2023-02-26T12:04:27;4.30;99.90
32095;DHT22;18608;53.688;10.748;2023-02-26T12:06:54;4.10;99.90
32095;DHT22;18608;53.688;10.748;2023-02-26T12:09:20;3.80;99.90
32095;DHT22;18608;53.688;10.748;2023-02-26T12:12:07;3.80;99.90
32095;DHT22;18608;53.688;10.748;2023-02-26T12:15:19;3.70;99.90
32095;DHT22;18608;53.688;10.748;2023-02-26T12:23:37;4.00;99.90
32095;DHT22;18608;53.688;10.748;2023-02-26T12:26:26;4.00;99.90
32095;DHT22;18608;53.688;10.748;2023-02-26T12:45:51;3.90;99.90
32095;DHT22;18608;53.688;10.748;2023-02-26T13:01:50;4.30;99.90
32095;DHT22;18608;53.688;10.748;2023-02-26T13:04:30;4.20;99.90
32095;DHT22;18608;53.688;10.748;2023-02-26T13:07:15;4.20;99.90
32095;DHT22;18608;53.688;10.748;2023-02-26T13:21:21;4.50;99.90
32095;DHT22;18608;53.688;10.748;2023-02-26T13:23:59;4.40;99.90
32095;DHT22;18608;53.688;10.748;2023-02-26T13:26:29;4.20;99.90
32095;DHT22;18608;53.688;10.748;2023-02-26T13:32:00;4.10;99.90
32095;DHT22;18608;53.688;10.748;2023-02-26T13:34:38;4.10;99.90
32095;DHT22;18608;53.688;10.748;2023-02-26T13:37:19;3.90;99.90
32095;DHT22;18608;53.688;10.748;2023-02-26T13:56:16;4.20;99.90
32095;DHT22;18608;53.688;10.748;2023-02-26T13:58:53;4.00;99.90
32095;DHT22;18608;53.688;10.748;2023-02-26T14:06:58;4.10;99.90
32095;DHT22;18608;53.688;10.748;2023-02-26T14:10:00;4.20;99.90
32095;DHT22;18608;53.688;10.748;2023-02-26T14:12:42;4.30;99.90
32095;DHT22;18608;53.688;10.748;2023-02-26T14:15:31;4.20;99.90
32095;DHT22;18608;53.688;10.748;2023-02-26T14:18:09;4.20;99.90
32095;DHT22;18608;53.688;10.748;2023-02-26T14:20:43;4.20;99.90
32095;DHT22;18608;53.688;10.748;2023-02-26T14:23:20;4.10;99.90
32095;DHT22;18608;53.688;10.748;2023-02-26T14:25:52;4.10;99.90
32095;DHT22;18608;53.688;10.748;2023-02-26T14:36:47;4.20;99.90
32095;DHT22;18608;53.688;10.748;2023-02-26T14:39:38;4.20;99.90
32095;DHT22;18608;53.688;10.748;2023-02-26T14:42:31;4.40;99.90
32095;DHT22;18608;53.688;10.748;2023-02-26T14:47:43;4.30;99.90
32095;DHT22;18608;53.688;10.748;2023-02-26T14:50:20;4.30;99.90
32095;DHT22;18608;53.688;10.748;2023-02-26T15:01:06;4.10;99.90
32095;DHT22;18608;53.688;10.748;2023-02-26T15:14:08;4.20;99.90
32095;DHT22;18608;53.688;10.748;2023-02-26T15:16:56;4.10;99.90
32095;DHT22;18608;53.688;10.748;2023-02-26T15:19:40;4.00;99.90
32095;DHT22;18608;53.688;10.748;2023-02-26T15:23:16;3.90;99.90
32095;DHT22;18608;53.688;10.748;2023-02-26T15:25:37;3.80;99.90
32095;DHT22;18608;53.688;10.748;2023-02-26T15:28:05;3.60;99.90
32095;DHT22;18608;53.688;10.748;2023-02-26T15:30:32;3.60;99.90
32095;DHT22;18608;53.688;10.748;2023-02-26T15:33:02;3.50;99.90
32095;DHT22;18608;53.688;10.748;2023-02-26T15:35:29;3.60;99.90
32095;DHT22;18608;53.688;10.748;2023-02-26T15:37:58;3.50;99.90
32095;DHT22;18608;53.688;10.748;2023-02-26T15:40:28;3.50;99.90
32095;DHT22;18608;53.688;10.748;2023-02-26T15:42:56;3.50;99.90
32095;DHT22;18608;53.688;10.748;2023-02-26T15:45:30;3.50;99.90
32095;DHT22;18608;53.688;10.748;2023-02-26T15:48:01;3.60;99.90
32095;DHT22;18608;53.688;10.748;2023-02-26T15:50:31;3.60;99.90
32095;DHT22;18608;53.688;10.748;2023-02-26T15:53:00;3.80;99.90
32095;DHT22;18608;53.688;10.748;2023-02-26T15:55:31;3.70;99.90
32095;DHT22;18608;53.688;10.748;2023-02-26T15:57:59;3.60;99.90
32095;DHT22;18608;53.688;10.748;2023-02-26T16:00:25;3.50;99.90
32095;DHT22;18608;53.688;10.748;2023-02-26T16:02:55;3.30;99.90
32095;DHT22;18608;53.688;10.748;2023-02-26T16:05:28;3.20;99.90
32095;DHT22;18608;53.688;10.748;2023-02-26T16:07:54;3.20;99.90
32095;DHT22;18608;53.688;10.748;2023-02-26T16:10:38;3.20;99.90
32095;DHT22;18608;53.688;10.748;2023-02-26T16:13:05;3.20;99.90
32095;DHT22;18608;53.688;10.748;2023-02-26T16:15:36;3.20;99.90
32095;DHT22;18608;53.688;10.748;2023-02-26T16:18:05;3.10;99.90
32095;DHT22;18608;53.688;10.748;2023-02-26T16:20:39;3.30;99.90
32095;DHT22;18608;53.688;10.748;2023-02-26T16:23:20;3.20;99.90
32095;DHT22;18608;53.688;10.748;2023-02-26T16:25:54;3.30;99.90
32095;DHT22;18608;53.688;10.748;2023-02-26T16:28:23;3.20;99.90
32095;DHT22;18608;53.688;10.748;2023-02-26T16:30:52;3.00;99.90
32095;DHT22;18608;53.688;10.748;2023-02-26T16:33:21;2.90;99.90
32095;DHT22;18608;53.688;10.748;2023-02-26T16:35:56;2.90;99.90
32095;DHT22;18608;53.688;10.748;2023-02-26T16:38:31;2.80;99.90
32095;DHT22;18608;53.688;10.748;2023-02-26T16:41:05;2.70;99.90
32095;DHT22;18608;53.688;10.748;2023-02-26T16:46:42;2.60;99.90
32095;DHT22;18608;53.688;10.748;2023-02-26T16:49:25;2.50;99.90
32095;DHT22;18608;53.688;10.748;2023-02-26T16:51:52;2.50;99.90
32095;DHT22;18608;53.688;10.748;2023-02-26T16:54:22;2.40;99.90
32095;DHT22;18608;53.688;10.748;2023-02-26T16:56:57;2.40;99.90
32095;DHT22;18608;53.688;10.748;2023-02-26T16:59:25;2.40;99.90
32095;DHT22;18608;53.688;10.748;2023-02-26T17:02:11;2.30;99.90
32095;DHT22;18608;53.688;10.748;2023-02-26T17:04:38;2.10;99.90
32095;DHT22;18608;53.688;10.748;2023-02-26T17:07:34;2.10;99.90
32095;DHT22;18608;53.688;10.748;2023-02-26T17:10:20;2.10;99.90
32095;DHT22;18608;53.688;10.748;2023-02-26T17:12:51;2.10;99.90
32095;DHT22;18608;53.688;10.748;2023-02-26T17:15:37;2.10;99.90
32095;DHT22;18608;53.688;10.748;2023-02-26T17:18:03;2.20;99.90
32095;DHT22;18608;53.688;10.748;2023-02-26T17:20:30;1.90;99.90
32095;DHT22;18608;53.688;10.748;2023-02-26T17:22:57;1.80;99.90
32095;DHT22;18608;53.688;10.748;2023-02-26T17:25:25;1.80;99.90
32095;DHT22;18608;53.688;10.748;2023-02-26T17:27:53;1.80;99.90
32095;DHT22;18608;53.688;10.748;2023-02-26T17:30:22;1.80;99.90
32095;DHT22;18608;53.688;10.748;2023-02-26T17:32:48;1.80;99.90
32095;DHT22;18608;53.688;10.748;2023-02-26T17:35:15;1.60;99.90
32095;DHT22;18608;53.688;10.748;2023-02-26T17:37:41;1.60;99.90
32095;DHT22;18608;53.688;10.748;2023-02-26T17:40:20;1.50;99.90
32095;DHT22;18608;53.688;10.748;2023-02-26T17:42:47;1.50;99.90
32095;DHT22;18608;53.688;10.748;2023-02-26T17:45:12;1.50;99.90
32095;DHT22;18608;53.688;10.748;2023-02-26T17:47:40;1.50;99.90
32095;DHT22;18608;53.688;10.748;2023-02-26T17:52:46;1.30;99.90
32095;DHT22;18608;53.688;10.748;2023-02-26T17:55:12;1.30;99.90
32095;DHT22;18608;53.688;10.748;2023-02-26T17:57:38;1.30;99.90
32095;DHT22;18608;53.688;10.748;2023-02-26T18:00:04;1.20;99.90
32095;DHT22;18608;53.688;10.748;2023-02-26T18:02:30;1.20;99.90
32095;DHT22;18608;53.688;10.748;2023-02-26T18:04:55;1.20;99.90
32095;DHT22;18608;53.688;10.748;2023-02-26T18:07:22;1.20;99.90
32095;DHT22;18608;53.688;10.748;2023-02-26T18:09:48;1.20;99.90
32095;DHT22;18608;53.688;10.748;2023-02-26T18:12:19;1.40;99.90
32095;DHT22;18608;53.688;10.748;2023-02-26T18:14:46;1.30;99.90
32095;DHT22;18608;53.688;10.748;2023-02-26T18:17:27;1.20;99.90
32095;DHT22;18608;53.688;10.748;2023-02-26T18:19:54;1.10;99.90
32095;DHT22;18608;53.688;10.748;2023-02-26T18:22:20;1.00;99.90
32095;DHT22;18608;53.688;10.748;2023-02-26T18:24:50;1.00;99.90
32095;DHT22;18608;53.688;10.748;2023-02-26T18:27:18;1.70;99.90
32095;DHT22;18608;53.688;10.748;2023-02-26T18:29:45;1.00;99.90
32095;DHT22;18608;53.688;10.748;2023-02-26T18:32:15;1.00;99.90
32095;DHT22;18608;53.688;10.748;2023-02-26T18:34:42;1.00;99.90
32095;DHT22;18608;53.688;10.748;2023-02-26T18:37:13;1.00;99.90
32095;DHT22;18608;53.688;10.748;2023-02-26T18:39:39;1.00;99.90
32095;DHT22;18608;53.688;10.748;2023-02-26T18:42:04;1.10;99.90
32095;DHT22;18608;53.688;10.748;2023-02-26T18:44:30;1.10;99.90
32095;DHT22;18608;53.688;10.748;2023-02-26T18:46:58;1.20;99.90
32095;DHT22;18608;53.688;10.748;2023-02-26T18:49:24;1.30;99.90
32095;DHT22;18608;53.688;10.748;2023-02-26T18:51:49;1.40;99.90
32095;DHT22;18608;53.688;10.748;2023-02-26T18:54:15;1.40;99.90
32095;DHT22;18608;53.688;10.748;2023-02-26T18:56:41;1.40;99.90
32095;DHT22;18608;53.688;10.748;2023-02-26T18:59:07;1.40;99.90
32095;DHT22;18608;53.688;10.748;2023-02-26T19:01:32;1.40;99.90
32095;DHT22;18608;53.688;10.748;2023-02-26T19:03:58;1.40;99.90
32095;DHT22;18608;53.688;10.748;2023-02-26T19:06:23;1.40;99.90
32095;DHT22;18608;53.688;10.748;2023-02-26T19:08:49;1.40;99.90